createdAt,value
2018-06-09T00:01:51.133Z,14.87
2018-06-09T00:06:45.711Z,13.50
2018-06-09T00:11:40.112Z,15.07
2018-06-09T00:16:34.545Z,13.17
2018-06-09T00:21:28.968Z,11.27
2018-06-09T00:26:23.408Z,9.47
2018-06-09T00:31:17.819Z,8.77
2018-06-09T00:36:12.068Z,7.70
2018-06-09T00:41:06.532Z,7.43
2018-06-09T00:46:00.968Z,6.20
2018-06-09T00:50:55.342Z,7.60
2018-06-09T00:55:49.774Z,7.73
2018-06-09T01:00:44.203Z,7.03
2018-06-09T01:05:38.595Z,6.90
2018-06-09T01:10:32.989Z,7.37
2018-06-09T01:15:27.420Z,7.27
2018-06-09T01:20:21.860Z,8.47
2018-06-09T01:25:16.271Z,7.90
2018-06-09T01:30:10.711Z,7.20
2018-06-09T01:35:05.365Z,7.60
2018-06-09T01:39:59.796Z,7.57
2018-06-09T01:44:54.184Z,7.37
2018-06-09T01:49:48.615Z,8.00
2018-06-09T01:54:43.013Z,8.23
2018-06-09T01:59:37.424Z,8.60
2018-06-09T02:04:31.848Z,9.30
2018-06-09T02:09:26.296Z,8.13
2018-06-09T02:14:20.700Z,9.83
2018-06-09T02:19:14.870Z,9.37
2018-06-09T02:24:09.344Z,10.43
2018-06-09T02:29:03.881Z,9.53
2018-06-09T02:33:58.360Z,10.20
2018-06-09T02:38:52.764Z,8.53
2018-06-09T02:43:47.217Z,9.70
2018-06-09T02:48:41.651Z,8.67
2018-06-09T02:53:36.068Z,9.50
2018-06-09T02:58:30.510Z,10.73
2018-06-09T03:03:24.919Z,10.37
2018-06-09T03:08:19.349Z,10.27
2018-06-09T03:13:13.769Z,11.43
2018-06-09T03:18:08.192Z,12.00
2018-06-09T03:23:02.729Z,10.53
2018-06-09T03:27:57.136Z,13.80
2018-06-09T03:32:51.556Z,13.97
2018-06-09T03:37:45.965Z,11.90
2018-06-09T03:42:40.367Z,12.87
2018-06-09T03:47:34.802Z,14.07
2018-06-09T03:52:29.227Z,13.40
2018-06-09T03:57:23.624Z,13.67
2018-06-09T04:02:18.233Z,15.33
2018-06-09T04:07:12.620Z,14.80
2018-06-09T04:12:07.041Z,15.40
2018-06-09T04:17:01.425Z,13.27
2018-06-09T04:21:55.845Z,11.60
2018-06-09T04:26:50.220Z,11.87
2018-06-09T04:31:44.624Z,12.90
2018-06-09T04:36:38.768Z,11.37
2018-06-09T04:41:34.084Z,12.80
2018-06-09T04:46:28.500Z,13.43
2018-06-09T04:51:22.933Z,12.87
2018-06-09T04:56:17.404Z,13.87
2018-06-09T05:01:11.812Z,15.10
2018-06-09T05:06:07.756Z,14.93
2018-06-09T05:11:02.232Z,13.77
2018-06-09T05:15:56.650Z,13.83
2018-06-09T05:20:51.082Z,13.67
2018-06-09T05:25:45.529Z,15.00
2018-06-09T05:30:39.961Z,13.70
2018-06-09T05:35:34.409Z,12.97
2018-06-09T05:40:28.796Z,10.47
2018-06-09T05:45:23.225Z,8.10
2018-06-09T05:50:17.817Z,7.80
2018-06-09T05:55:12.382Z,7.83
2018-06-09T06:00:07.230Z,7.45
2018-06-09T06:05:01.660Z,7.70
2018-06-09T06:09:56.075Z,8.45
2018-06-09T06:14:50.509Z,8.75
2018-06-09T06:19:44.925Z,9.00
2018-06-09T06:24:39.388Z,9.15
2018-06-09T06:29:33.882Z,9.83
2018-06-09T06:34:28.368Z,9.43
2018-06-09T06:39:22.820Z,9.53
2018-06-09T06:44:17.296Z,9.40
2018-06-09T06:49:11.748Z,10.03
2018-06-09T06:54:06.263Z,9.97
2018-06-09T06:59:00.726Z,9.55
2018-06-09T07:03:55.175Z,8.23
2018-06-09T07:08:49.604Z,8.20
2018-06-09T07:13:44.065Z,9.00
2018-06-09T07:18:38.492Z,8.85
2018-06-09T07:23:32.907Z,8.20
2018-06-09T07:28:27.311Z,8.15
2018-06-09T07:33:21.824Z,9.65
2018-06-09T07:38:16.270Z,8.58
2018-06-09T07:43:10.715Z,8.23
2018-06-09T07:48:05.234Z,7.83
2018-06-09T07:52:59.736Z,7.87
2018-06-09T07:57:54.167Z,6.45
2018-06-09T08:02:48.619Z,7.40
2018-06-09T08:07:43.073Z,7.03
2018-06-09T08:12:37.528Z,6.33
2018-06-09T08:17:31.955Z,7.25
2018-06-09T08:22:26.390Z,6.17
2018-06-09T08:27:20.845Z,6.03
2018-06-09T08:32:15.304Z,5.60
2018-06-09T08:37:09.729Z,7.15
2018-06-09T08:42:04.212Z,6.65
2018-06-09T08:46:58.614Z,6.70
2018-06-09T08:51:53.021Z,7.40
2018-06-09T08:56:47.469Z,7.85
2018-06-09T09:01:41.943Z,7.85
2018-06-09T09:06:36.378Z,7.28
2018-06-09T09:11:30.841Z,6.37
2018-06-09T09:16:25.422Z,7.92
2018-06-09T09:21:19.832Z,8.75
2018-06-09T09:26:14.292Z,7.72
2018-06-09T09:31:08.672Z,7.45
2018-06-09T09:36:03.111Z,8.25
2018-06-09T09:40:57.525Z,8.23
2018-06-09T09:45:51.940Z,6.67
2018-06-09T09:50:46.412Z,7.00
2018-06-09T09:55:40.842Z,6.12
2018-06-09T10:00:37.315Z,6.35
2018-06-09T10:05:31.771Z,6.40
2018-06-09T10:10:26.212Z,5.20
2018-06-09T10:15:20.663Z,5.05
2018-06-09T10:20:15.101Z,4.90
2018-06-09T10:25:09.549Z,4.70
2018-06-09T10:30:04.029Z,4.60
2018-06-09T10:34:58.445Z,4.75
2018-06-09T10:39:52.846Z,4.30
2018-06-09T10:44:47.283Z,4.65
2018-06-09T10:49:41.722Z,4.17
2018-06-09T10:54:36.216Z,3.35
2018-06-09T10:59:30.660Z,3.87
2018-06-09T11:04:25.161Z,3.95
2018-06-09T11:09:19.571Z,3.95
2018-06-09T11:14:13.990Z,3.92
2018-06-09T11:19:08.381Z,4.35
2018-06-09T11:24:02.827Z,3.80
2018-06-09T11:28:57.316Z,3.72
2018-06-09T11:33:51.458Z,4.05
2018-06-09T11:38:45.884Z,4.50
2018-06-09T11:43:40.295Z,3.80
2018-06-09T11:48:34.692Z,4.20
2018-06-09T11:53:29.111Z,3.65
2018-06-09T11:58:23.525Z,4.10
2018-06-09T12:03:17.996Z,4.10
2018-06-09T12:08:12.408Z,3.70
2018-06-09T12:13:07.105Z,3.55
2018-06-09T12:18:01.543Z,3.72
2018-06-09T12:22:56.034Z,3.83
2018-06-09T12:27:50.482Z,4.22
2018-06-09T12:32:45.957Z,4.22
2018-06-09T12:37:40.358Z,3.92
2018-06-09T12:42:34.822Z,4.10
2018-06-09T12:47:29.288Z,4.05
2018-06-09T12:52:23.792Z,3.77
2018-06-09T12:57:18.218Z,3.65
2018-06-09T13:02:12.647Z,3.87
2018-06-09T13:07:07.566Z,3.72
2018-06-09T13:12:02.028Z,3.80
2018-06-09T13:16:56.441Z,3.77
2018-06-09T13:21:51.513Z,3.25
2018-06-09T13:26:46.006Z,3.45
2018-06-09T13:31:40.440Z,3.95
2018-06-09T13:36:34.898Z,2.98
2018-06-09T13:41:29.345Z,2.98
2018-06-09T13:46:23.785Z,3.10
2018-06-09T13:51:17.960Z,3.12
2018-06-09T13:56:12.396Z,2.80
2018-06-09T14:01:07.049Z,3.12
2018-06-09T14:06:01.466Z,3.55
2018-06-09T14:10:55.955Z,3.47
2018-06-09T14:15:50.360Z,3.30
2018-06-09T14:20:44.784Z,3.35
2018-06-09T14:25:39.200Z,3.77
2018-06-09T14:30:33.629Z,3.55
2018-06-09T14:35:28.064Z,3.10
2018-06-09T14:40:22.497Z,2.80
2018-06-09T14:45:17.068Z,2.70
2018-06-09T14:50:11.564Z,2.50
2018-06-09T14:55:06.060Z,2.70
2018-06-09T15:00:00.572Z,2.40
2018-06-09T15:04:55.067Z,2.98
2018-06-09T15:09:49.231Z,2.95
2018-06-09T15:14:43.661Z,3.50
2018-06-09T15:19:38.153Z,3.08
2018-06-09T15:24:32.521Z,2.98
2018-06-09T15:29:26.977Z,3.20
2018-06-09T15:34:21.393Z,2.90
2018-06-09T15:39:15.854Z,3.60
2018-06-09T15:44:10.296Z,3.30
2018-06-09T15:49:04.815Z,3.50
2018-06-09T15:53:59.235Z,3.22
2018-06-09T15:58:53.732Z,3.40
2018-06-09T16:03:48.181Z,3.72
2018-06-09T16:08:42.646Z,3.62
2018-06-09T16:13:37.066Z,3.22
2018-06-09T16:18:31.542Z,3.70
2018-06-09T16:23:26.053Z,3.58
2018-06-09T16:28:20.498Z,5.35
2018-06-09T16:33:14.928Z,6.92
2018-06-09T16:38:09.095Z,5.95
2018-06-09T16:43:03.973Z,6.78
2018-06-09T16:47:58.403Z,6.87
2018-06-09T16:52:52.893Z,7.33
2018-06-09T16:57:47.404Z,7.17
2018-06-09T17:02:41.816Z,7.28
2018-06-09T17:07:37.046Z,7.22
2018-06-09T17:12:31.461Z,7.28
2018-06-09T17:17:25.898Z,7.33
2018-06-09T17:22:20.345Z,7.00
2018-06-09T17:27:14.771Z,7.40
2018-06-09T17:32:09.254Z,7.40
2018-06-09T17:37:03.958Z,7.80
2018-06-09T17:41:58.452Z,7.10
2018-06-09T17:46:52.901Z,6.35
2018-06-09T17:51:47.364Z,6.47
2018-06-09T17:56:41.852Z,5.67
2018-06-09T18:01:36.255Z,6.08
2018-06-09T18:06:30.724Z,6.05
2018-06-09T18:11:25.213Z,6.70
2018-06-09T18:16:19.736Z,6.62
2018-06-09T18:21:14.246Z,6.67
2018-06-09T18:26:08.822Z,6.80
2018-06-09T18:31:03.315Z,6.92
2018-06-09T18:35:57.728Z,7.10
2018-06-09T18:40:52.178Z,7.15
2018-06-09T18:45:47.579Z,8.43
2018-06-09T18:50:42.208Z,7.80
2018-06-09T18:55:36.736Z,7.75
2018-06-09T19:00:31.179Z,7.15
2018-06-09T19:05:25.711Z,7.67
2018-06-09T19:10:20.163Z,7.40
2018-06-09T19:15:14.636Z,8.18
2018-06-09T19:20:09.342Z,8.20
2018-06-09T19:25:04.072Z,7.72
2018-06-09T19:29:58.752Z,7.47
2018-06-09T19:34:53.227Z,8.03
2018-06-09T19:39:47.674Z,7.58
2018-06-09T19:44:42.119Z,7.00
2018-06-09T19:49:36.565Z,7.67
2018-06-09T19:54:31.044Z,8.08
2018-06-09T19:59:25.468Z,7.58
2018-06-09T20:04:19.922Z,7.45
2018-06-09T20:09:14.381Z,8.08
2018-06-09T20:14:08.989Z,7.87
2018-06-09T20:19:03.602Z,7.78
2018-06-09T20:23:58.086Z,9.83
2018-06-09T20:28:53.150Z,9.10
2018-06-09T20:35:17.090Z,9.55
2018-06-09T20:40:11.605Z,8.93
2018-06-09T20:45:06.350Z,9.13
2018-06-09T20:50:00.993Z,9.33
2018-06-09T20:54:55.511Z,9.03
2018-06-09T20:59:50.143Z,9.30
2018-06-09T21:04:45.652Z,9.57
2018-06-09T21:09:40.376Z,11.33
2018-06-09T21:14:35.012Z,9.90
2018-06-09T21:19:29.648Z,8.87
2018-06-09T21:24:24.883Z,9.03
2018-06-09T21:29:24.761Z,9.20
2018-06-09T21:34:41.128Z,10.07
2018-06-09T21:41:46.224Z,8.87
2018-06-09T21:46:44.766Z,9.43
2018-06-09T21:51:39.300Z,9.33
2018-06-09T21:56:33.817Z,9.70
2018-06-09T22:01:28.247Z,9.30
2018-06-09T22:06:22.398Z,9.77
2018-06-09T22:11:16.869Z,8.33
2018-06-09T22:16:12.088Z,9.30
2018-06-09T22:21:06.587Z,8.80
2018-06-09T22:26:01.081Z,8.60
2018-06-09T22:30:55.518Z,9.80
2018-06-09T22:35:50.094Z,9.57
2018-06-09T22:40:44.518Z,10.30
2018-06-09T22:45:38.929Z,10.03
2018-06-09T22:50:33.408Z,9.73
2018-06-09T22:55:27.908Z,11.03
2018-06-09T23:00:37.077Z,11.07
2018-06-09T23:05:31.614Z,10.03
2018-06-09T23:10:26.204Z,9.87
2018-06-09T23:15:21.139Z,10.47
2018-06-09T23:20:15.746Z,9.80
2018-06-09T23:25:10.243Z,10.37
2018-06-09T23:30:04.781Z,11.47
2018-06-09T23:34:59.273Z,11.90
2018-06-09T23:39:53.807Z,11.30
2018-06-09T23:44:48.388Z,11.77
2018-06-09T23:49:42.806Z,14.77
2018-06-09T23:54:37.228Z,10.20
2018-06-09T23:59:31.905Z,9.73
